createdAt,value
2022-08-12T00:02:02.928Z,2.28
2022-08-12T00:04:35.967Z,2.00
2022-08-12T00:07:19.333Z,2.10
2022-08-12T00:10:02.110Z,2.33
2022-08-12T00:12:44.941Z,2.47
2022-08-12T00:15:32.155Z,2.53
2022-08-12T00:18:15.032Z,2.10
2022-08-12T00:21:00.775Z,2.55
2022-08-12T00:23:43.536Z,2.15
2022-08-12T00:26:29.728Z,2.10
2022-08-12T00:29:12.449Z,2.00
2022-08-12T00:31:55.557Z,2.38
2022-08-12T00:34:38.325Z,2.13
2022-08-12T00:37:23.692Z,2.40
2022-08-12T00:40:10.814Z,2.42
2022-08-12T00:42:43.904Z,2.22
2022-08-12T00:45:14.307Z,2.50
2022-08-12T00:47:45.545Z,2.55
2022-08-12T00:50:20.606Z,2.40
2022-08-12T00:52:56.038Z,2.95
2022-08-12T00:55:26.466Z,2.45
2022-08-12T00:57:56.912Z,2.20
2022-08-12T01:00:28.840Z,2.60
2022-08-12T01:02:59.514Z,2.13
2022-08-12T01:05:42.539Z,2.53
2022-08-12T01:08:43.086Z,2.65
2022-08-12T01:11:28.258Z,2.33
2022-08-12T01:14:02.136Z,2.17
2022-08-12T01:16:32.732Z,2.78
2022-08-12T01:19:04.570Z,2.28
2022-08-12T01:22:19.377Z,2.65
2022-08-12T01:25:12.917Z,2.20
2022-08-12T01:27:44.407Z,2.72
2022-08-12T01:30:16.740Z,2.95
2022-08-12T01:32:51.401Z,2.88
2022-08-12T01:35:21.963Z,2.80
2022-08-12T01:38:02.817Z,2.40
2022-08-12T01:40:42.518Z,2.33
2022-08-12T01:43:22.810Z,2.40
2022-08-12T01:46:14.802Z,2.92
2022-08-12T01:49:07.620Z,2.60
2022-08-12T01:52:16.074Z,2.50
2022-08-12T01:54:39.543Z,2.65
2022-08-12T01:57:58.670Z,2.30
2022-08-12T02:00:15.162Z,2.55
2022-08-12T02:05:46.690Z,2.55
2022-08-12T02:08:46.121Z,2.10
2022-08-12T02:11:24.179Z,2.80
2022-08-12T02:14:34.556Z,2.50
2022-08-12T02:17:55.716Z,2.33
2022-08-12T02:20:35.168Z,2.40
2022-08-12T02:23:27.232Z,2.17
2022-08-12T02:26:02.401Z,2.20
2022-08-12T02:28:33.837Z,2.42
2022-08-12T02:31:11.163Z,2.65
2022-08-12T02:33:42.319Z,2.60
2022-08-12T02:36:13.161Z,2.70
2022-08-12T02:38:46.212Z,2.40
2022-08-12T02:41:19.860Z,2.90
2022-08-12T02:43:54.925Z,2.35
2022-08-12T02:46:34.529Z,2.85
2022-08-12T02:49:14.885Z,2.67
2022-08-12T02:51:47.236Z,2.80
2022-08-12T02:54:17.876Z,3.03
2022-08-12T02:56:51.079Z,2.60
2022-08-12T02:59:26.437Z,2.88
2022-08-12T03:02:03.897Z,2.53
2022-08-12T03:04:43.646Z,2.70
2022-08-12T03:07:21.171Z,2.97
2022-08-12T03:10:04.848Z,3.05
2022-08-12T03:12:49.396Z,2.80
2022-08-12T03:15:24.874Z,3.03
2022-08-12T03:18:24.741Z,2.53
2022-08-12T03:20:59.729Z,3.67
2022-08-12T03:23:32.668Z,2.35
2022-08-12T03:26:05.832Z,2.95
2022-08-12T03:28:51.665Z,2.65
2022-08-12T03:31:25.127Z,2.70
2022-08-12T03:34:03.502Z,2.95
2022-08-12T03:36:36.795Z,2.75
2022-08-12T03:39:36.599Z,2.70
2022-08-12T03:42:22.643Z,3.10
2022-08-12T03:45:16.721Z,3.03
2022-08-12T03:48:07.756Z,2.72
2022-08-12T03:50:53.558Z,2.60
2022-08-12T03:53:42.590Z,2.67
2022-08-12T03:56:25.557Z,2.35
2022-08-12T03:59:10.955Z,2.50
2022-08-12T04:01:43.404Z,2.78
2022-08-12T04:04:16.999Z,2.83
2022-08-12T04:06:50.146Z,2.80
2022-08-12T04:09:24.245Z,3.00
2022-08-12T04:12:07.279Z,2.72
2022-08-12T04:14:38.724Z,2.80
2022-08-12T04:17:09.700Z,2.83
2022-08-12T04:19:40.636Z,2.85
2022-08-12T04:22:13.705Z,2.70
2022-08-12T04:24:47.705Z,3.03
2022-08-12T04:27:21.141Z,3.10
2022-08-12T04:30:30.099Z,2.55
2022-08-12T04:32:44.564Z,3.33
2022-08-12T04:35:16.166Z,2.90
2022-08-12T04:37:57.947Z,2.92
2022-08-12T04:40:33.924Z,3.15
2022-08-12T04:43:04.938Z,2.80
2022-08-12T04:45:37.715Z,3.03
2022-08-12T04:48:09.122Z,2.75
2022-08-12T04:50:39.426Z,4.70
2022-08-12T04:53:13.234Z,3.20
2022-08-12T04:55:46.851Z,2.73
2022-08-12T04:58:29.312Z,3.15
2022-08-12T05:01:01.220Z,3.17
2022-08-12T05:03:46.664Z,3.10
2022-08-12T05:06:27.102Z,3.17
2022-08-12T05:09:02.149Z,3.30
2022-08-12T05:11:54.102Z,3.58
2022-08-12T05:14:25.302Z,3.15
2022-08-12T05:16:55.666Z,2.90
2022-08-12T05:19:26.933Z,3.60
2022-08-12T05:21:57.329Z,3.15
2022-08-12T05:24:30.566Z,3.28
2022-08-12T05:27:00.964Z,2.72
2022-08-12T05:30:06.468Z,3.35
2022-08-12T05:32:26.337Z,3.05
2022-08-12T05:37:27.332Z,3.20
2022-08-12T05:40:00.725Z,2.42
2022-08-12T05:42:41.140Z,2.83
2022-08-12T05:45:13.847Z,2.85
2022-08-12T05:47:54.010Z,3.13
2022-08-12T05:50:25.878Z,3.50
2022-08-12T05:52:57.313Z,3.75
2022-08-12T05:55:31.721Z,2.75
2022-08-12T05:58:03.257Z,2.80
2022-08-12T06:00:34.654Z,3.70
2022-08-12T06:03:07.161Z,2.58
2022-08-12T06:05:54.299Z,2.97
2022-08-12T06:08:26.669Z,2.72
2022-08-12T06:11:01.996Z,2.67
2022-08-12T06:13:52.851Z,2.67
2022-08-12T06:16:27.496Z,2.33
2022-08-12T06:18:57.967Z,2.92
2022-08-12T06:21:28.826Z,2.50
2022-08-12T06:23:59.193Z,2.42
2022-08-12T06:26:34.701Z,2.20
2022-08-12T06:29:05.346Z,2.15
2022-08-12T06:31:35.685Z,2.45
2022-08-12T06:35:25.702Z,2.45
2022-08-12T06:36:56.550Z,2.60
2022-08-12T06:39:27.139Z,2.70
2022-08-12T06:42:42.234Z,2.10
2022-08-12T06:47:33.240Z,1.80
2022-08-12T06:50:04.107Z,1.73
2022-08-12T06:52:34.455Z,1.90
2022-08-12T06:55:04.831Z,2.28
2022-08-12T06:58:05.663Z,1.90
2022-08-12T07:00:39.268Z,1.95
2022-08-12T07:03:22.741Z,1.70
2022-08-12T07:05:53.967Z,1.55
2022-08-12T07:08:26.917Z,1.50
2022-08-12T07:11:00.300Z,1.40
2022-08-12T07:13:36.085Z,1.55
2022-08-12T07:16:27.084Z,1.85
2022-08-12T07:18:59.198Z,1.40
2022-08-12T07:22:00.035Z,1.33
2022-08-12T07:24:24.565Z,1.55
2022-08-12T07:26:55.876Z,1.30
2022-08-12T07:30:02.578Z,1.83
2022-08-12T07:32:23.827Z,1.50
2022-08-12T07:34:54.820Z,1.65
2022-08-12T07:37:25.200Z,1.45
2022-08-12T07:40:00.330Z,1.60
2022-08-12T07:42:32.462Z,1.48
2022-08-12T07:45:07.516Z,1.92
2022-08-12T07:47:38.115Z,1.20
2022-08-12T07:50:10.904Z,1.52
2022-08-12T07:52:44.059Z,1.40
2022-08-12T07:55:19.318Z,1.77
2022-08-12T07:57:58.055Z,1.58
2022-08-12T08:00:34.420Z,1.50
2022-08-12T08:03:05.182Z,1.52
2022-08-12T08:05:40.201Z,1.45
2022-08-12T08:08:18.196Z,1.40
2022-08-12T08:10:49.240Z,1.40
2022-08-12T08:13:17.647Z,1.10
2022-08-12T08:16:03.535Z,1.15
2022-08-12T08:18:34.362Z,1.55
2022-08-12T08:21:04.765Z,1.30
2022-08-12T08:23:56.329Z,1.10
2022-08-12T08:26:28.567Z,1.10
2022-08-12T08:28:59.760Z,2.47
2022-08-12T08:31:32.853Z,1.52
2022-08-12T08:34:27.725Z,1.20
2022-08-12T08:36:54.280Z,1.40
2022-08-12T08:39:28.133Z,1.30
2022-08-12T08:42:19.188Z,1.70
2022-08-12T08:44:58.134Z,1.42
2022-08-12T08:47:31.516Z,1.30
2022-08-12T08:50:03.378Z,1.25
2022-08-12T08:52:40.276Z,1.08
2022-08-12T08:55:14.145Z,1.17
2022-08-12T08:57:47.792Z,1.50
2022-08-12T09:00:19.932Z,1.30
2022-08-12T09:02:58.570Z,1.27
2022-08-12T09:06:01.686Z,1.35
2022-08-12T09:12:11.504Z,1.20
2022-08-12T09:14:31.405Z,1.80
2022-08-12T09:17:03.093Z,1.08
2022-08-12T09:19:37.341Z,1.40
2022-08-12T09:22:11.060Z,1.38
2022-08-12T09:24:48.864Z,1.05
2022-08-12T09:27:23.416Z,1.45
2022-08-12T09:30:16.237Z,1.50
2022-08-12T09:33:04.520Z,1.40
2022-08-12T09:35:44.474Z,1.40
2022-08-12T09:38:28.393Z,1.50
2022-08-12T09:42:34.137Z,1.38
2022-08-12T09:44:05.521Z,1.35
2022-08-12T09:46:36.637Z,1.42
2022-08-12T09:49:16.244Z,1.40
2022-08-12T09:51:50.494Z,1.33
2022-08-12T09:54:33.597Z,1.67
2022-08-12T10:00:15.194Z,1.30
2022-08-12T10:03:05.961Z,1.48
2022-08-12T10:06:19.559Z,1.30
2022-08-12T10:08:39.164Z,1.30
2022-08-12T10:11:23.274Z,1.23
2022-08-12T10:13:57.308Z,1.27
2022-08-12T10:16:38.739Z,1.10
2022-08-12T10:19:17.199Z,1.20
2022-08-12T10:21:48.508Z,1.35
2022-08-12T10:24:30.198Z,1.60
2022-08-12T10:27:14.372Z,1.27
2022-08-12T10:30:03.017Z,1.38
2022-08-12T10:32:44.312Z,1.52
2022-08-12T10:35:18.506Z,1.13
2022-08-12T10:38:38.403Z,1.35
2022-08-12T10:41:04.054Z,1.60
2022-08-12T10:46:31.165Z,1.13
2022-08-12T10:49:06.840Z,1.50
2022-08-12T10:52:32.601Z,1.23
2022-08-12T10:54:49.300Z,1.27
2022-08-12T10:58:15.560Z,1.40
2022-08-12T11:00:33.788Z,1.00
2022-08-12T11:04:19.382Z,1.33
2022-08-12T11:07:06.015Z,1.30
2022-08-12T11:08:51.276Z,1.27
2022-08-12T11:12:08.492Z,1.50
2022-08-12T11:14:49.288Z,1.13
2022-08-12T11:17:43.515Z,1.40
2022-08-12T11:20:14.909Z,1.05
2022-08-12T11:22:49.406Z,1.08
2022-08-12T11:25:55.677Z,1.27
2022-08-12T11:28:33.498Z,1.23
2022-08-12T11:31:12.326Z,1.48
2022-08-12T11:34:05.327Z,0.80
2022-08-12T11:36:39.118Z,1.30
2022-08-12T11:39:12.418Z,1.17
2022-08-12T11:41:43.218Z,1.20
2022-08-12T11:44:37.098Z,1.10
2022-08-12T11:47:10.831Z,1.08
2022-08-12T11:49:41.372Z,2.10
2022-08-12T11:52:51.375Z,1.10
2022-08-12T11:55:14.805Z,1.38
2022-08-12T12:03:44.241Z,1.05
2022-08-12T12:06:18.072Z,1.05
2022-08-12T12:08:52.966Z,1.20
2022-08-12T12:11:25.335Z,1.50
2022-08-12T12:14:06.630Z,1.30
2022-08-12T12:16:40.033Z,1.20
2022-08-12T12:19:15.206Z,1.15
2022-08-12T12:21:47.508Z,1.10
2022-08-12T12:24:22.467Z,1.75
2022-08-12T12:26:59.530Z,1.25
2022-08-12T12:30:17.928Z,1.10
2022-08-12T12:32:28.829Z,1.17
2022-08-12T12:35:13.890Z,1.20
2022-08-12T12:38:05.539Z,1.33
2022-08-12T12:40:46.197Z,1.40
2022-08-12T12:43:29.081Z,1.33
2022-08-12T12:46:12.465Z,1.60
2022-08-12T12:48:44.678Z,1.20
2022-08-12T12:51:48.142Z,1.35
2022-08-12T12:54:11.461Z,1.38
2022-08-12T12:56:47.976Z,1.45
2022-08-12T12:59:54.996Z,1.40
2022-08-12T13:02:11.214Z,1.48
2022-08-12T13:04:41.936Z,1.50
2022-08-12T13:07:19.202Z,1.65
2022-08-12T13:09:49.972Z,1.60
2022-08-12T13:12:20.716Z,1.70
2022-08-12T13:14:51.674Z,1.48
2022-08-12T13:17:22.141Z,1.80
2022-08-12T13:19:55.627Z,1.55
2022-08-12T13:22:30.378Z,1.50
2022-08-12T13:25:01.966Z,1.30
2022-08-12T13:27:42.604Z,1.50
2022-08-12T13:30:24.803Z,1.20
2022-08-12T13:32:59.020Z,1.15
2022-08-12T13:38:34.244Z,1.45
2022-08-12T13:41:11.752Z,1.50
2022-08-12T13:43:42.444Z,1.40
2022-08-12T13:46:17.817Z,1.23
2022-08-12T13:48:48.697Z,1.33
2022-08-12T13:51:24.205Z,1.40
2022-08-12T13:54:04.158Z,1.30
2022-08-12T13:56:38.543Z,1.63
2022-08-12T13:59:11.557Z,1.45
2022-08-12T14:01:42.397Z,1.60
2022-08-12T14:04:13.395Z,1.20
2022-08-12T14:06:44.942Z,1.58
2022-08-12T14:09:19.980Z,1.50
2022-08-12T14:11:59.454Z,1.55
2022-08-12T14:14:35.764Z,1.50
2022-08-12T14:17:10.417Z,1.40
2022-08-12T14:20:01.378Z,1.20
2022-08-12T14:22:32.195Z,1.38
2022-08-12T14:25:06.297Z,1.45
2022-08-12T14:30:29.375Z,1.77
2022-08-12T14:33:03.038Z,1.80
2022-08-12T14:35:41.363Z,1.77
2022-08-12T14:38:26.156Z,1.60
2022-08-12T14:41:01.841Z,1.50
2022-08-12T14:43:58.939Z,1.60
2022-08-12T14:46:28.016Z,1.63
2022-08-12T14:48:58.523Z,1.60
2022-08-12T14:52:44.083Z,1.50
2022-08-12T14:57:44.897Z,1.60
2022-08-12T15:00:29.881Z,1.60
2022-08-12T15:03:00.292Z,1.70
2022-08-12T15:06:06.122Z,1.80
2022-08-12T15:08:33.575Z,1.60
2022-08-12T15:11:05.664Z,1.80
2022-08-12T15:13:45.723Z,1.67
2022-08-12T15:16:18.667Z,1.70
2022-08-12T15:18:55.030Z,2.00
2022-08-12T15:22:36.795Z,1.90
2022-08-12T15:24:20.532Z,1.75
2022-08-12T15:26:51.613Z,1.70
2022-08-12T15:29:26.417Z,2.00
2022-08-12T15:34:38.961Z,1.83
2022-08-12T15:37:09.368Z,1.90
2022-08-12T15:39:39.852Z,1.80
2022-08-12T15:42:30.038Z,2.08
2022-08-12T15:45:03.422Z,1.80
2022-08-12T15:47:49.541Z,2.00
2022-08-12T15:50:26.371Z,1.90
2022-08-12T15:52:58.844Z,2.10
2022-08-12T15:55:46.235Z,2.03
2022-08-12T15:58:17.495Z,2.00
2022-08-12T16:00:52.789Z,1.80
2022-08-12T16:03:45.342Z,1.80
2022-08-12T16:06:36.289Z,1.60
2022-08-12T16:09:21.618Z,1.60
2022-08-12T16:11:52.339Z,1.70
2022-08-12T16:14:22.696Z,2.13
2022-08-12T16:16:57.901Z,1.98
2022-08-12T16:20:04.068Z,3.05
2022-08-12T16:22:21.486Z,2.47
2022-08-12T16:24:56.215Z,6.90
2022-08-12T16:27:29.813Z,12.95
2022-08-12T16:30:10.913Z,4.10
2022-08-12T16:32:46.466Z,3.40
2022-08-12T16:35:24.286Z,1.88
2022-08-12T16:38:28.234Z,2.05
2022-08-12T16:40:54.434Z,2.00
2022-08-12T16:43:28.153Z,2.10
2022-08-12T16:46:05.661Z,1.90
2022-08-12T16:48:55.860Z,1.75
2022-08-12T16:51:26.827Z,3.50
2022-08-12T16:53:57.436Z,2.58
2022-08-12T16:56:31.988Z,2.63
2022-08-12T16:59:02.851Z,2.47
2022-08-12T17:01:46.456Z,2.20
2022-08-12T17:04:20.342Z,2.25
2022-08-12T17:06:55.083Z,2.10
2022-08-12T17:09:26.310Z,1.80
2022-08-12T17:12:11.617Z,1.77
2022-08-12T17:14:42.439Z,2.45
2022-08-12T17:17:26.345Z,2.20
2022-08-12T17:20:34.599Z,2.22
2022-08-12T17:23:09.769Z,1.60
2022-08-12T17:25:48.328Z,1.95
2022-08-12T17:28:20.331Z,2.50
2022-08-12T17:30:59.573Z,1.75
2022-08-12T17:33:33.275Z,2.10
2022-08-12T17:36:10.639Z,2.08
2022-08-12T17:38:41.709Z,1.80
2022-08-12T17:41:22.732Z,1.83
2022-08-12T17:43:58.307Z,2.00
2022-08-12T17:46:33.570Z,2.20
2022-08-12T17:49:06.533Z,2.05
2022-08-12T17:52:02.217Z,2.45
2022-08-12T17:54:34.677Z,2.22
2022-08-12T17:57:16.142Z,2.40
2022-08-12T17:59:49.540Z,2.17
2022-08-12T18:02:29.772Z,1.90
2022-08-12T18:05:10.040Z,2.17
2022-08-12T18:07:44.906Z,2.08
2022-08-12T18:10:42.996Z,1.92
2022-08-12T18:13:12.911Z,2.35
2022-08-12T18:16:06.740Z,2.17
2022-08-12T18:18:39.334Z,2.60
2022-08-12T18:21:12.379Z,2.10
2022-08-12T18:23:53.603Z,2.58
2022-08-12T18:26:27.265Z,2.42
2022-08-12T18:28:59.015Z,2.58
2022-08-12T18:31:44.530Z,2.28
2022-08-12T18:34:24.725Z,2.20
2022-08-12T18:36:59.749Z,2.20
2022-08-12T18:40:06.079Z,2.25
2022-08-12T18:42:36.475Z,2.38
2022-08-12T18:45:12.109Z,1.92
2022-08-12T18:47:49.871Z,2.13
2022-08-12T18:50:24.755Z,2.33
2022-08-12T18:52:56.875Z,2.30
2022-08-12T18:55:37.441Z,2.50
2022-08-12T18:58:10.103Z,2.28
2022-08-12T19:00:43.296Z,2.40
2022-08-12T19:03:38.616Z,2.20
2022-08-12T19:06:09.142Z,2.75
2022-08-12T19:08:49.495Z,2.63
2022-08-12T19:11:36.191Z,2.67
2022-08-12T19:14:20.697Z,2.60
2022-08-12T19:19:23.220Z,3.25
2022-08-12T19:21:57.004Z,2.88
2022-08-12T19:24:41.799Z,2.92
2022-08-12T19:27:15.957Z,3.08
2022-08-12T19:30:06.535Z,3.00
2022-08-12T19:32:37.939Z,2.80
2022-08-12T19:38:07.286Z,2.80
2022-08-12T19:40:39.558Z,3.08
2022-08-12T19:43:20.961Z,2.90
2022-08-12T19:45:56.659Z,2.38
2022-08-12T19:48:32.635Z,3.10
2022-08-12T19:51:09.293Z,3.50
2022-08-12T19:53:58.078Z,3.28
2022-08-12T19:56:30.311Z,3.10
2022-08-12T19:59:18.679Z,3.00
2022-08-12T20:02:02.871Z,2.97
2022-08-12T20:04:37.731Z,2.55
2022-08-12T20:07:12.605Z,2.92
2022-08-12T20:09:56.929Z,3.20
2022-08-12T20:12:32.619Z,3.30
2022-08-12T20:15:11.233Z,3.38
2022-08-12T20:17:50.738Z,3.20
2022-08-12T20:20:27.794Z,3.45
2022-08-12T20:22:58.910Z,3.63
2022-08-12T20:25:52.682Z,3.58
2022-08-12T20:28:21.652Z,3.20
2022-08-12T20:31:00.011Z,3.72
2022-08-12T20:33:50.200Z,3.17
2022-08-12T20:36:41.552Z,2.72
2022-08-12T20:39:33.955Z,4.00
2022-08-12T20:42:07.823Z,3.05
2022-08-12T20:44:40.594Z,2.90
2022-08-12T20:47:19.627Z,3.70
2022-08-12T20:49:54.821Z,3.33
2022-08-12T20:52:30.220Z,3.20
2022-08-12T20:57:38.272Z,3.50
2022-08-12T21:00:28.469Z,3.10
2022-08-12T21:03:21.649Z,3.40
2022-08-12T21:06:13.047Z,3.13
2022-08-12T21:08:44.374Z,3.28
2022-08-12T21:11:15.067Z,3.47
2022-08-12T21:13:47.216Z,3.38
2022-08-12T21:16:31.497Z,3.20
2022-08-12T21:19:11.820Z,3.72
2022-08-12T21:21:58.845Z,3.13
2022-08-12T21:24:32.301Z,3.38
2022-08-12T21:27:07.379Z,3.22
2022-08-12T21:29:40.100Z,3.42
2022-08-12T21:32:36.839Z,3.78
2022-08-12T21:35:19.042Z,3.30
2022-08-12T21:37:53.314Z,3.53
2022-08-12T21:40:37.419Z,3.10
2022-08-12T21:43:15.953Z,2.83
2022-08-12T21:46:00.909Z,3.13
2022-08-12T21:48:32.015Z,2.90
2022-08-12T21:51:22.588Z,3.30
2022-08-12T21:54:07.507Z,2.60
2022-08-12T21:56:41.168Z,3.55
2022-08-12T21:59:14.541Z,3.42
2022-08-12T22:01:48.994Z,3.13
2022-08-12T22:07:07.971Z,3.13
2022-08-12T22:09:43.235Z,2.95
2022-08-12T22:12:26.832Z,2.92
2022-08-12T22:14:57.606Z,3.22
2022-08-12T22:17:49.907Z,3.40
2022-08-12T22:20:29.442Z,3.33
2022-08-12T22:23:05.405Z,3.35
2022-08-12T22:25:40.058Z,3.15
2022-08-12T22:28:24.639Z,3.25
2022-08-12T22:31:07.584Z,2.78
2022-08-12T22:33:53.907Z,3.72
2022-08-12T22:36:29.320Z,3.30
2022-08-12T22:39:02.732Z,2.78
2022-08-12T22:41:45.746Z,2.83
2022-08-12T22:44:28.450Z,3.25
2022-08-12T22:47:12.218Z,2.92
2022-08-12T22:49:53.611Z,2.67
2022-08-12T22:52:30.748Z,3.10
2022-08-12T22:55:06.383Z,3.05
2022-08-12T23:00:27.916Z,3.25
2022-08-12T23:03:02.775Z,3.63
2022-08-12T23:06:09.624Z,3.40
2022-08-12T23:08:32.068Z,2.67
2022-08-12T23:11:08.505Z,2.70
2022-08-12T23:13:57.173Z,4.38
2022-08-12T23:16:33.383Z,2.88
2022-08-12T23:19:11.071Z,3.13
2022-08-12T23:22:05.858Z,3.00
2022-08-12T23:24:56.093Z,3.08
2022-08-12T23:27:50.255Z,3.10
2022-08-12T23:30:25.079Z,3.17
2022-08-12T23:33:01.919Z,3.22
2022-08-12T23:35:45.844Z,3.65
2022-08-12T23:38:30.888Z,3.00
2022-08-12T23:41:03.899Z,3.00
2022-08-12T23:43:43.407Z,2.83
2022-08-12T23:46:22.605Z,3.08
2022-08-12T23:49:01.025Z,3.10
2022-08-12T23:51:32.294Z,2.80
2022-08-12T23:54:10.160Z,3.20
2022-08-12T23:56:48.808Z,2.95
2022-08-12T23:59:22.885Z,3.13
